sensor_id;sensor_type;location;lat;lon;timestamp;P1;durP1;ratioP1;P2;durP2;ratioP2
36233;SDS011;43467;50.890;5.982;2023-02-21T00:02:06;66.07;;;33.30;;
36233;SDS011;43467;50.890;5.982;2023-02-21T00:04:55;57.70;;;28.98;;
36233;SDS011;43467;50.890;5.982;2023-02-21T00:07:40;53.22;;;31.38;;
36233;SDS011;43467;50.890;5.982;2023-02-21T00:10:24;64.00;;;33.15;;
36233;SDS011;43467;50.890;5.982;2023-02-21T00:13:08;63.20;;;33.05;;
36233;SDS011;43467;50.890;5.982;2023-02-21T00:15:52;64.28;;;32.90;;
36233;SDS011;43467;50.890;5.982;2023-02-21T00:18:37;69.43;;;35.97;;
36233;SDS011;43467;50.890;5.982;2023-02-21T00:21:21;68.30;;;34.40;;
36233;SDS011;43467;50.890;5.982;2023-02-21T00:24:07;64.63;;;34.33;;
36233;SDS011;43467;50.890;5.982;2023-02-21T00:26:55;59.88;;;34.85;;
36233;SDS011;43467;50.890;5.982;2023-02-21T00:29:39;67.35;;;34.03;;
36233;SDS011;43467;50.890;5.982;2023-02-21T00:32:23;67.07;;;36.53;;
36233;SDS011;43467;50.890;5.982;2023-02-21T00:35:07;61.13;;;35.40;;
36233;SDS011;43467;50.890;5.982;2023-02-21T00:37:51;64.05;;;35.25;;
36233;SDS011;43467;50.890;5.982;2023-02-21T00:40:36;66.72;;;35.47;;
36233;SDS011;43467;50.890;5.982;2023-02-21T00:43:30;60.35;;;33.92;;
36233;SDS011;43467;50.890;5.982;2023-02-21T00:46:16;68.60;;;34.17;;
36233;SDS011;43467;50.890;5.982;2023-02-21T00:49:00;65.17;;;33.93;;
36233;SDS011;43467;50.890;5.982;2023-02-21T00:51:45;60.22;;;34.53;;
36233;SDS011;43467;50.890;5.982;2023-02-21T00:54:29;64.82;;;32.83;;
36233;SDS011;43467;50.890;5.982;2023-02-21T00:57:13;65.20;;;33.20;;
36233;SDS011;43467;50.890;5.982;2023-02-21T00:59:57;64.15;;;32.90;;
36233;SDS011;43467;50.890;5.982;2023-02-21T01:02:41;63.53;;;32.63;;
36233;SDS011;43467;50.890;5.982;2023-02-21T01:05:26;63.95;;;33.40;;
36233;SDS011;43467;50.890;5.982;2023-02-21T01:08:10;71.72;;;34.15;;
36233;SDS011;43467;50.890;5.982;2023-02-21T01:10:54;65.95;;;33.10;;
36233;SDS011;43467;50.890;5.982;2023-02-21T01:13:38;65.13;;;34.08;;
36233;SDS011;43467;50.890;5.982;2023-02-21T01:16:22;63.65;;;35.30;;
36233;SDS011;43467;50.890;5.982;2023-02-21T01:19:07;66.03;;;34.50;;
36233;SDS011;43467;50.890;5.982;2023-02-21T01:21:50;65.63;;;34.90;;
36233;SDS011;43467;50.890;5.982;2023-02-21T01:24:34;75.60;;;36.30;;
36233;SDS011;43467;50.890;5.982;2023-02-21T01:27:18;69.57;;;34.83;;
36233;SDS011;43467;50.890;5.982;2023-02-21T01:30:03;65.90;;;34.10;;
36233;SDS011;43467;50.890;5.982;2023-02-21T01:32:47;66.63;;;35.42;;
36233;SDS011;43467;50.890;5.982;2023-02-21T01:35:31;69.15;;;34.63;;
36233;SDS011;43467;50.890;5.982;2023-02-21T01:38:15;74.10;;;35.90;;
36233;SDS011;43467;50.890;5.982;2023-02-21T01:40:59;71.18;;;34.47;;
36233;SDS011;43467;50.890;5.982;2023-02-21T01:44:01;64.57;;;33.67;;
36233;SDS011;43467;50.890;5.982;2023-02-21T01:46:48;69.18;;;34.22;;
36233;SDS011;43467;50.890;5.982;2023-02-21T01:49:33;67.97;;;32.88;;
36233;SDS011;43467;50.890;5.982;2023-02-21T01:52:20;70.53;;;33.58;;
36233;SDS011;43467;50.890;5.982;2023-02-21T01:55:05;73.03;;;35.53;;
36233;SDS011;43467;50.890;5.982;2023-02-21T01:57:50;68.55;;;34.38;;
36233;SDS011;43467;50.890;5.982;2023-02-21T02:00:36;75.07;;;36.13;;
36233;SDS011;43467;50.890;5.982;2023-02-21T02:03:21;75.50;;;37.03;;
36233;SDS011;43467;50.890;5.982;2023-02-21T02:06:07;70.78;;;36.13;;
36233;SDS011;43467;50.890;5.982;2023-02-21T02:08:52;73.53;;;35.55;;
36233;SDS011;43467;50.890;5.982;2023-02-21T02:11:41;72.32;;;34.88;;
36233;SDS011;43467;50.890;5.982;2023-02-21T02:15:06;73.18;;;35.50;;
36233;SDS011;43467;50.890;5.982;2023-02-21T02:34:38;71.65;;;33.38;;
36233;SDS011;43467;50.890;5.982;2023-02-21T02:40:08;69.53;;;34.45;;
36233;SDS011;43467;50.890;5.982;2023-02-21T02:45:45;75.70;;;35.38;;
36233;SDS011;43467;50.890;5.982;2023-02-21T02:48:20;73.03;;;35.25;;
36233;SDS011;43467;50.890;5.982;2023-02-21T02:50:49;75.32;;;34.47;;
36233;SDS011;43467;50.890;5.982;2023-02-21T02:53:17;81.20;;;36.47;;
36233;SDS011;43467;50.890;5.982;2023-02-21T02:55:54;68.00;;;33.75;;
36233;SDS011;43467;50.890;5.982;2023-02-21T02:58:22;75.15;;;33.83;;
36233;SDS011;43467;50.890;5.982;2023-02-21T03:01:02;69.00;;;33.60;;
36233;SDS011;43467;50.890;5.982;2023-02-21T03:04:03;70.55;;;33.50;;
36233;SDS011;43467;50.890;5.982;2023-02-21T03:12:28;80.90;;;37.17;;
36233;SDS011;43467;50.890;5.982;2023-02-21T03:15:07;79.97;;;34.97;;
36233;SDS011;43467;50.890;5.982;2023-02-21T03:17:40;71.95;;;34.65;;
36233;SDS011;43467;50.890;5.982;2023-02-21T03:20:10;70.93;;;32.72;;
36233;SDS011;43467;50.890;5.982;2023-02-21T03:22:37;71.30;;;33.72;;
36233;SDS011;43467;50.890;5.982;2023-02-21T03:25:06;69.97;;;33.92;;
36233;SDS011;43467;50.890;5.982;2023-02-21T03:27:31;72.85;;;33.72;;
36233;SDS011;43467;50.890;5.982;2023-02-21T03:29:59;76.28;;;34.50;;
36233;SDS011;43467;50.890;5.982;2023-02-21T03:32:37;68.95;;;34.45;;
36233;SDS011;43467;50.890;5.982;2023-02-21T03:35:07;78.53;;;37.22;;
36233;SDS011;43467;50.890;5.982;2023-02-21T03:40:29;79.35;;;36.45;;
36233;SDS011;43467;50.890;5.982;2023-02-21T03:42:56;80.18;;;36.40;;
36233;SDS011;43467;50.890;5.982;2023-02-21T03:45:23;71.90;;;34.42;;
36233;SDS011;43467;50.890;5.982;2023-02-21T03:47:48;74.85;;;35.33;;
36233;SDS011;43467;50.890;5.982;2023-02-21T03:50:14;70.38;;;33.42;;
36233;SDS011;43467;50.890;5.982;2023-02-21T03:52:39;72.78;;;33.03;;
36233;SDS011;43467;50.890;5.982;2023-02-21T03:55:05;74.18;;;33.75;;
36233;SDS011;43467;50.890;5.982;2023-02-21T03:57:32;63.08;;;31.58;;
36233;SDS011;43467;50.890;5.982;2023-02-21T03:59:58;61.40;;;31.45;;
36233;SDS011;43467;50.890;5.982;2023-02-21T04:02:24;68.57;;;32.50;;
36233;SDS011;43467;50.890;5.982;2023-02-21T04:04:49;70.38;;;31.88;;
36233;SDS011;43467;50.890;5.982;2023-02-21T04:07:16;73.85;;;33.53;;
36233;SDS011;43467;50.890;5.982;2023-02-21T04:09:43;74.80;;;34.70;;
36233;SDS011;43467;50.890;5.982;2023-02-21T04:12:08;67.82;;;32.15;;
36233;SDS011;43467;50.890;5.982;2023-02-21T04:14:34;73.78;;;34.30;;
36233;SDS011;43467;50.890;5.982;2023-02-21T04:17:00;72.35;;;34.88;;
36233;SDS011;43467;50.890;5.982;2023-02-21T04:19:26;74.85;;;33.88;;
36233;SDS011;43467;50.890;5.982;2023-02-21T04:21:51;82.85;;;35.22;;
36233;SDS011;43467;50.890;5.982;2023-02-21T04:24:16;73.13;;;33.08;;
36233;SDS011;43467;50.890;5.982;2023-02-21T04:26:42;81.07;;;35.45;;
36233;SDS011;43467;50.890;5.982;2023-02-21T04:29:07;88.70;;;36.83;;
36233;SDS011;43467;50.890;5.982;2023-02-21T04:31:33;85.43;;;36.60;;
36233;SDS011;43467;50.890;5.982;2023-02-21T04:33:58;88.72;;;38.67;;
36233;SDS011;43467;50.890;5.982;2023-02-21T04:36:24;90.30;;;39.70;;
36233;SDS011;43467;50.890;5.982;2023-02-21T04:38:50;103.60;;;39.47;;
36233;SDS011;43467;50.890;5.982;2023-02-21T04:41:16;95.40;;;39.38;;
36233;SDS011;43467;50.890;5.982;2023-02-21T04:43:42;95.30;;;38.65;;
36233;SDS011;43467;50.890;5.982;2023-02-21T04:46:09;105.97;;;40.83;;
36233;SDS011;43467;50.890;5.982;2023-02-21T04:48:35;96.68;;;40.00;;
36233;SDS011;43467;50.890;5.982;2023-02-21T04:51:00;99.55;;;39.05;;
36233;SDS011;43467;50.890;5.982;2023-02-21T04:53:25;95.93;;;41.38;;
36233;SDS011;43467;50.890;5.982;2023-02-21T04:55:51;96.47;;;39.38;;
36233;SDS011;43467;50.890;5.982;2023-02-21T04:58:16;92.55;;;37.47;;
36233;SDS011;43467;50.890;5.982;2023-02-21T05:00:42;98.88;;;41.13;;
36233;SDS011;43467;50.890;5.982;2023-02-21T05:03:07;94.30;;;39.17;;
36233;SDS011;43467;50.890;5.982;2023-02-21T05:05:32;95.35;;;39.08;;
36233;SDS011;43467;50.890;5.982;2023-02-21T05:07:58;93.65;;;38.70;;
36233;SDS011;43467;50.890;5.982;2023-02-21T05:10:23;102.07;;;41.20;;
36233;SDS011;43467;50.890;5.982;2023-02-21T05:12:48;95.13;;;40.58;;
36233;SDS011;43467;50.890;5.982;2023-02-21T05:15:14;103.00;;;41.08;;
36233;SDS011;43467;50.890;5.982;2023-02-21T05:17:39;102.07;;;41.28;;
36233;SDS011;43467;50.890;5.982;2023-02-21T05:20:05;92.60;;;38.55;;
36233;SDS011;43467;50.890;5.982;2023-02-21T05:22:35;96.05;;;38.05;;
36233;SDS011;43467;50.890;5.982;2023-02-21T05:25:14;97.55;;;40.47;;
36233;SDS011;43467;50.890;5.982;2023-02-21T05:27:41;92.88;;;38.92;;
36233;SDS011;43467;50.890;5.982;2023-02-21T05:30:07;93.28;;;38.28;;
36233;SDS011;43467;50.890;5.982;2023-02-21T05:32:33;101.00;;;38.85;;
36233;SDS011;43467;50.890;5.982;2023-02-21T05:34:58;100.13;;;40.92;;
36233;SDS011;43467;50.890;5.982;2023-02-21T05:37:24;89.20;;;37.85;;
36233;SDS011;43467;50.890;5.982;2023-02-21T05:39:49;94.78;;;38.90;;
36233;SDS011;43467;50.890;5.982;2023-02-21T05:42:15;83.10;;;34.92;;
36233;SDS011;43467;50.890;5.982;2023-02-21T05:44:42;94.60;;;37.78;;
36233;SDS011;43467;50.890;5.982;2023-02-21T05:47:12;89.63;;;36.10;;
36233;SDS011;43467;50.890;5.982;2023-02-21T05:49:40;86.03;;;34.40;;
36233;SDS011;43467;50.890;5.982;2023-02-21T05:52:07;83.95;;;34.60;;
36233;SDS011;43467;50.890;5.982;2023-02-21T05:54:35;93.88;;;38.45;;
36233;SDS011;43467;50.890;5.982;2023-02-21T05:57:01;80.38;;;34.50;;
36233;SDS011;43467;50.890;5.982;2023-02-21T05:59:26;75.07;;;32.22;;
36233;SDS011;43467;50.890;5.982;2023-02-21T06:01:52;79.25;;;33.10;;
36233;SDS011;43467;50.890;5.982;2023-02-21T06:04:17;68.05;;;31.98;;
36233;SDS011;43467;50.890;5.982;2023-02-21T06:06:43;71.05;;;32.13;;
36233;SDS011;43467;50.890;5.982;2023-02-21T06:09:09;85.97;;;36.45;;
36233;SDS011;43467;50.890;5.982;2023-02-21T06:11:36;75.45;;;33.33;;
36233;SDS011;43467;50.890;5.982;2023-02-21T06:14:03;77.40;;;33.22;;
36233;SDS011;43467;50.890;5.982;2023-02-21T06:16:32;74.05;;;32.53;;
36233;SDS011;43467;50.890;5.982;2023-02-21T06:18:58;77.13;;;32.88;;
36233;SDS011;43467;50.890;5.982;2023-02-21T06:21:24;74.95;;;31.27;;
36233;SDS011;43467;50.890;5.982;2023-02-21T06:23:49;81.57;;;31.80;;
36233;SDS011;43467;50.890;5.982;2023-02-21T06:26:15;69.15;;;31.17;;
36233;SDS011;43467;50.890;5.982;2023-02-21T06:28:41;77.75;;;31.85;;
36233;SDS011;43467;50.890;5.982;2023-02-21T06:31:07;76.47;;;31.95;;
36233;SDS011;43467;50.890;5.982;2023-02-21T06:33:33;65.88;;;28.38;;
36233;SDS011;43467;50.890;5.982;2023-02-21T06:36:02;73.13;;;30.67;;
36233;SDS011;43467;50.890;5.982;2023-02-21T06:38:32;66.88;;;30.48;;
36233;SDS011;43467;50.890;5.982;2023-02-21T06:40:58;72.93;;;30.83;;
36233;SDS011;43467;50.890;5.982;2023-02-21T06:43:23;66.97;;;27.85;;
36233;SDS011;43467;50.890;5.982;2023-02-21T06:45:49;69.35;;;29.38;;
36233;SDS011;43467;50.890;5.982;2023-02-21T06:48:14;63.08;;;28.55;;
36233;SDS011;43467;50.890;5.982;2023-02-21T06:50:40;60.13;;;28.67;;
36233;SDS011;43467;50.890;5.982;2023-02-21T06:53:06;59.22;;;26.42;;
36233;SDS011;43467;50.890;5.982;2023-02-21T06:55:31;53.72;;;27.65;;
36233;SDS011;43467;50.890;5.982;2023-02-21T06:57:57;58.38;;;26.45;;
36233;SDS011;43467;50.890;5.982;2023-02-21T07:00:22;57.45;;;27.75;;
36233;SDS011;43467;50.890;5.982;2023-02-21T07:02:51;56.55;;;27.20;;
36233;SDS011;43467;50.890;5.982;2023-02-21T07:05:17;53.42;;;25.70;;
36233;SDS011;43467;50.890;5.982;2023-02-21T07:07:42;53.75;;;25.40;;
36233;SDS011;43467;50.890;5.982;2023-02-21T07:10:08;49.22;;;24.33;;
36233;SDS011;43467;50.890;5.982;2023-02-21T07:12:33;45.15;;;22.15;;
36233;SDS011;43467;50.890;5.982;2023-02-21T07:14:59;54.08;;;25.42;;
36233;SDS011;43467;50.890;5.982;2023-02-21T07:17:24;50.42;;;22.98;;
36233;SDS011;43467;50.890;5.982;2023-02-21T07:19:49;57.58;;;26.15;;
36233;SDS011;43467;50.890;5.982;2023-02-21T07:22:15;47.70;;;24.17;;
36233;SDS011;43467;50.890;5.982;2023-02-21T07:24:41;54.20;;;24.77;;
36233;SDS011;43467;50.890;5.982;2023-02-21T07:27:07;49.65;;;23.42;;
36233;SDS011;43467;50.890;5.982;2023-02-21T07:29:32;46.90;;;22.77;;
36233;SDS011;43467;50.890;5.982;2023-02-21T07:31:57;44.72;;;21.58;;
36233;SDS011;43467;50.890;5.982;2023-02-21T07:34:23;49.08;;;22.10;;
36233;SDS011;43467;50.890;5.982;2023-02-21T07:36:48;49.72;;;22.13;;
36233;SDS011;43467;50.890;5.982;2023-02-21T07:39:14;46.58;;;21.67;;
36233;SDS011;43467;50.890;5.982;2023-02-21T07:41:39;37.80;;;20.48;;
36233;SDS011;43467;50.890;5.982;2023-02-21T07:44:05;44.15;;;20.85;;
36233;SDS011;43467;50.890;5.982;2023-02-21T07:46:31;43.22;;;21.30;;
36233;SDS011;43467;50.890;5.982;2023-02-21T07:48:58;35.00;;;19.10;;
36233;SDS011;43467;50.890;5.982;2023-02-21T07:51:26;41.53;;;19.75;;
36233;SDS011;43467;50.890;5.982;2023-02-21T07:53:54;40.88;;;20.45;;
36233;SDS011;43467;50.890;5.982;2023-02-21T07:56:20;42.53;;;21.08;;
36233;SDS011;43467;50.890;5.982;2023-02-21T07:58:46;40.42;;;19.13;;
36233;SDS011;43467;50.890;5.982;2023-02-21T08:01:12;41.58;;;20.27;;
36233;SDS011;43467;50.890;5.982;2023-02-21T08:03:37;35.70;;;18.95;;
36233;SDS011;43467;50.890;5.982;2023-02-21T08:06:04;41.72;;;20.58;;
36233;SDS011;43467;50.890;5.982;2023-02-21T08:08:30;38.50;;;19.52;;
36233;SDS011;43467;50.890;5.982;2023-02-21T08:10:55;46.75;;;23.40;;
36233;SDS011;43467;50.890;5.982;2023-02-21T08:13:21;46.95;;;22.00;;
36233;SDS011;43467;50.890;5.982;2023-02-21T08:15:46;46.88;;;23.27;;
36233;SDS011;43467;50.890;5.982;2023-02-21T08:18:19;48.20;;;23.08;;
36233;SDS011;43467;50.890;5.982;2023-02-21T08:20:48;43.67;;;23.00;;
36233;SDS011;43467;50.890;5.982;2023-02-21T08:23:15;46.50;;;23.23;;
36233;SDS011;43467;50.890;5.982;2023-02-21T08:25:42;47.97;;;23.35;;
36233;SDS011;43467;50.890;5.982;2023-02-21T08:28:08;49.83;;;23.95;;
36233;SDS011;43467;50.890;5.982;2023-02-21T08:30:33;39.65;;;19.95;;
36233;SDS011;43467;50.890;5.982;2023-02-21T08:32:59;39.30;;;20.52;;
36233;SDS011;43467;50.890;5.982;2023-02-21T08:35:24;37.20;;;18.90;;
36233;SDS011;43467;50.890;5.982;2023-02-21T08:37:49;41.50;;;19.92;;
36233;SDS011;43467;50.890;5.982;2023-02-21T08:40:17;39.03;;;20.17;;
36233;SDS011;43467;50.890;5.982;2023-02-21T08:42:46;38.22;;;21.20;;
36233;SDS011;43467;50.890;5.982;2023-02-21T08:45:17;37.85;;;20.55;;
36233;SDS011;43467;50.890;5.982;2023-02-21T08:47:44;41.75;;;21.13;;
36233;SDS011;43467;50.890;5.982;2023-02-21T08:50:10;39.60;;;21.08;;
36233;SDS011;43467;50.890;5.982;2023-02-21T08:52:36;39.55;;;19.65;;
36233;SDS011;43467;50.890;5.982;2023-02-21T08:55:01;42.15;;;21.40;;
36233;SDS011;43467;50.890;5.982;2023-02-21T08:57:27;41.50;;;21.60;;
36233;SDS011;43467;50.890;5.982;2023-02-21T08:59:52;41.88;;;20.45;;
36233;SDS011;43467;50.890;5.982;2023-02-21T09:02:20;41.75;;;20.60;;
36233;SDS011;43467;50.890;5.982;2023-02-21T09:04:47;40.20;;;21.85;;
36233;SDS011;43467;50.890;5.982;2023-02-21T09:07:13;44.47;;;22.33;;
36233;SDS011;43467;50.890;5.982;2023-02-21T09:09:40;41.15;;;21.58;;
36233;SDS011;43467;50.890;5.982;2023-02-21T09:12:06;49.33;;;23.02;;
36233;SDS011;43467;50.890;5.982;2023-02-21T09:14:35;46.05;;;22.77;;
36233;SDS011;43467;50.890;5.982;2023-02-21T09:17:02;52.58;;;23.13;;
36233;SDS011;43467;50.890;5.982;2023-02-21T09:19:27;49.70;;;22.90;;
36233;SDS011;43467;50.890;5.982;2023-02-21T09:21:53;48.92;;;22.55;;
36233;SDS011;43467;50.890;5.982;2023-02-21T09:24:22;42.00;;;22.00;;
36233;SDS011;43467;50.890;5.982;2023-02-21T09:26:53;43.17;;;21.73;;
36233;SDS011;43467;50.890;5.982;2023-02-21T09:29:20;44.05;;;21.55;;
36233;SDS011;43467;50.890;5.982;2023-02-21T09:31:46;47.33;;;22.10;;
36233;SDS011;43467;50.890;5.982;2023-02-21T09:34:12;42.55;;;21.50;;
36233;SDS011;43467;50.890;5.982;2023-02-21T09:36:38;43.55;;;21.58;;
36233;SDS011;43467;50.890;5.982;2023-02-21T09:39:03;42.63;;;20.63;;
36233;SDS011;43467;50.890;5.982;2023-02-21T09:41:30;43.20;;;20.13;;
36233;SDS011;43467;50.890;5.982;2023-02-21T09:43:57;40.30;;;19.75;;
36233;SDS011;43467;50.890;5.982;2023-02-21T09:46:41;45.78;;;21.88;;
36233;SDS011;43467;50.890;5.982;2023-02-21T09:49:13;37.33;;;18.70;;
36233;SDS011;43467;50.890;5.982;2023-02-21T09:51:44;44.03;;;21.90;;
36233;SDS011;43467;50.890;5.982;2023-02-21T09:54:12;46.40;;;20.73;;
36233;SDS011;43467;50.890;5.982;2023-02-21T09:56:48;37.92;;;18.98;;
36233;SDS011;43467;50.890;5.982;2023-02-21T09:59:14;39.55;;;19.70;;
36233;SDS011;43467;50.890;5.982;2023-02-21T10:01:44;54.50;;;27.35;;
36233;SDS011;43467;50.890;5.982;2023-02-21T10:04:21;47.53;;;23.35;;
36233;SDS011;43467;50.890;5.982;2023-02-21T10:06:59;45.33;;;21.90;;
36233;SDS011;43467;50.890;5.982;2023-02-21T10:09:39;41.05;;;20.95;;
36233;SDS011;43467;50.890;5.982;2023-02-21T10:12:25;38.55;;;19.50;;
36233;SDS011;43467;50.890;5.982;2023-02-21T10:15:02;48.35;;;22.27;;
36233;SDS011;43467;50.890;5.982;2023-02-21T10:17:45;41.63;;;20.65;;
36233;SDS011;43467;50.890;5.982;2023-02-21T10:23:22;45.03;;;21.38;;
36233;SDS011;43467;50.890;5.982;2023-02-21T10:25:48;43.08;;;21.88;;
36233;SDS011;43467;50.890;5.982;2023-02-21T10:28:21;50.05;;;24.13;;
36233;SDS011;43467;50.890;5.982;2023-02-21T10:30:48;50.45;;;24.65;;
36233;SDS011;43467;50.890;5.982;2023-02-21T10:33:17;51.53;;;24.38;;
36233;SDS011;43467;50.890;5.982;2023-02-21T10:35:42;47.33;;;22.90;;
36233;SDS011;43467;50.890;5.982;2023-02-21T10:38:09;49.47;;;24.70;;
36233;SDS011;43467;50.890;5.982;2023-02-21T10:40:44;50.45;;;24.05;;
36233;SDS011;43467;50.890;5.982;2023-02-21T10:45:48;52.13;;;25.13;;
36233;SDS011;43467;50.890;5.982;2023-02-21T10:48:27;47.67;;;23.58;;
36233;SDS011;43467;50.890;5.982;2023-02-21T10:53:23;48.35;;;23.23;;
36233;SDS011;43467;50.890;5.982;2023-02-21T11:01:13;48.20;;;23.45;;
36233;SDS011;43467;50.890;5.982;2023-02-21T11:03:47;46.40;;;23.17;;
36233;SDS011;43467;50.890;5.982;2023-02-21T11:08:56;54.45;;;25.13;;
36233;SDS011;43467;50.890;5.982;2023-02-21T11:11:36;48.55;;;23.48;;
36233;SDS011;43467;50.890;5.982;2023-02-21T11:16:42;54.00;;;25.95;;
36233;SDS011;43467;50.890;5.982;2023-02-21T11:19:09;51.80;;;23.83;;
36233;SDS011;43467;50.890;5.982;2023-02-21T11:21:37;50.30;;;24.85;;
36233;SDS011;43467;50.890;5.982;2023-02-21T11:24:04;52.47;;;26.08;;
36233;SDS011;43467;50.890;5.982;2023-02-21T11:26:50;52.70;;;25.80;;
36233;SDS011;43467;50.890;5.982;2023-02-21T11:29:18;56.17;;;26.60;;
36233;SDS011;43467;50.890;5.982;2023-02-21T11:31:48;50.70;;;26.25;;
36233;SDS011;43467;50.890;5.982;2023-02-21T11:34:14;53.38;;;26.90;;
36233;SDS011;43467;50.890;5.982;2023-02-21T11:36:44;53.72;;;26.83;;
36233;SDS011;43467;50.890;5.982;2023-02-21T11:39:24;53.25;;;27.13;;
36233;SDS011;43467;50.890;5.982;2023-02-21T11:41:57;53.65;;;26.48;;
36233;SDS011;43467;50.890;5.982;2023-02-21T11:44:37;50.83;;;26.80;;
36233;SDS011;43467;50.890;5.982;2023-02-21T11:50:14;53.55;;;27.20;;
36233;SDS011;43467;50.890;5.982;2023-02-21T11:52:43;50.92;;;26.08;;
36233;SDS011;43467;50.890;5.982;2023-02-21T11:55:20;55.13;;;27.85;;
36233;SDS011;43467;50.890;5.982;2023-02-21T12:00:19;54.08;;;27.00;;
36233;SDS011;43467;50.890;5.982;2023-02-21T12:05:55;49.28;;;25.77;;
36233;SDS011;43467;50.890;5.982;2023-02-21T12:08:36;47.67;;;26.10;;
36233;SDS011;43467;50.890;5.982;2023-02-21T12:19:36;55.22;;;28.35;;
36233;SDS011;43467;50.890;5.982;2023-02-21T12:24:58;49.05;;;25.58;;
36233;SDS011;43467;50.890;5.982;2023-02-21T12:27:36;49.33;;;26.23;;
36233;SDS011;43467;50.890;5.982;2023-02-21T12:35:44;54.60;;;28.30;;
36233;SDS011;43467;50.890;5.982;2023-02-21T12:41:34;53.63;;;27.60;;
36233;SDS011;43467;50.890;5.982;2023-02-21T12:47:06;50.60;;;26.63;;
36233;SDS011;43467;50.890;5.982;2023-02-21T12:52:18;55.33;;;30.67;;
36233;SDS011;43467;50.890;5.982;2023-02-21T12:54:51;58.13;;;29.08;;
36233;SDS011;43467;50.890;5.982;2023-02-21T12:57:50;54.53;;;29.35;;
36233;SDS011;43467;50.890;5.982;2023-02-21T13:00:19;58.65;;;30.90;;
36233;SDS011;43467;50.890;5.982;2023-02-21T13:03:02;54.67;;;29.48;;
36233;SDS011;43467;50.890;5.982;2023-02-21T13:05:38;59.33;;;30.08;;
36233;SDS011;43467;50.890;5.982;2023-02-21T13:13:37;61.47;;;31.00;;
36233;SDS011;43467;50.890;5.982;2023-02-21T13:16:04;59.33;;;30.67;;
36233;SDS011;43467;50.890;5.982;2023-02-21T13:18:44;58.88;;;30.88;;
36233;SDS011;43467;50.890;5.982;2023-02-21T13:29:37;53.05;;;28.38;;
36233;SDS011;43467;50.890;5.982;2023-02-21T13:32:08;53.25;;;27.65;;
36233;SDS011;43467;50.890;5.982;2023-02-21T13:34:37;50.72;;;26.83;;
36233;SDS011;43467;50.890;5.982;2023-02-21T13:37:25;52.78;;;27.17;;
36233;SDS011;43467;50.890;5.982;2023-02-21T13:39:54;45.63;;;25.15;;
36233;SDS011;43467;50.890;5.982;2023-02-21T13:42:26;52.60;;;26.38;;
36233;SDS011;43467;50.890;5.982;2023-02-21T13:45:15;51.92;;;26.05;;
36233;SDS011;43467;50.890;5.982;2023-02-21T13:55:32;47.00;;;25.27;;
36233;SDS011;43467;50.890;5.982;2023-02-21T14:05:20;50.60;;;25.73;;
36233;SDS011;43467;50.890;5.982;2023-02-21T14:07:47;47.60;;;25.67;;
36233;SDS011;43467;50.890;5.982;2023-02-21T14:15:59;45.70;;;24.50;;
36233;SDS011;43467;50.890;5.982;2023-02-21T14:21:01;38.67;;;23.30;;
36233;SDS011;43467;50.890;5.982;2023-02-21T14:23:38;42.33;;;23.90;;
36233;SDS011;43467;50.890;5.982;2023-02-21T14:26:32;44.25;;;25.10;;
36233;SDS011;43467;50.890;5.982;2023-02-21T14:36:58;42.83;;;24.05;;
36233;SDS011;43467;50.890;5.982;2023-02-21T14:39:35;43.45;;;23.92;;
36233;SDS011;43467;50.890;5.982;2023-02-21T14:44:41;42.30;;;23.98;;
36233;SDS011;43467;50.890;5.982;2023-02-21T14:47:46;44.00;;;24.27;;
36233;SDS011;43467;50.890;5.982;2023-02-21T15:03:45;47.97;;;26.45;;
36233;SDS011;43467;50.890;5.982;2023-02-21T15:06:17;42.35;;;24.92;;
36233;SDS011;43467;50.890;5.982;2023-02-21T15:08:46;47.67;;;26.63;;
36233;SDS011;43467;50.890;5.982;2023-02-21T15:11:34;46.90;;;25.75;;
36233;SDS011;43467;50.890;5.982;2023-02-21T15:14:21;41.92;;;23.50;;
36233;SDS011;43467;50.890;5.982;2023-02-21T15:16:50;41.90;;;23.73;;
36233;SDS011;43467;50.890;5.982;2023-02-21T15:19:20;34.80;;;21.95;;
36233;SDS011;43467;50.890;5.982;2023-02-21T15:22:04;40.75;;;22.75;;
36233;SDS011;43467;50.890;5.982;2023-02-21T15:24:30;38.03;;;22.90;;
36233;SDS011;43467;50.890;5.982;2023-02-21T15:27:06;36.35;;;20.35;;
36233;SDS011;43467;50.890;5.982;2023-02-21T15:29:36;34.03;;;20.20;;
36233;SDS011;43467;50.890;5.982;2023-02-21T15:32:01;33.30;;;20.67;;
36233;SDS011;43467;50.890;5.982;2023-02-21T15:39:44;31.25;;;19.42;;
36233;SDS011;43467;50.890;5.982;2023-02-21T15:42:18;32.58;;;19.73;;
36233;SDS011;43467;50.890;5.982;2023-02-21T15:47:23;29.00;;;17.25;;
36233;SDS011;43467;50.890;5.982;2023-02-21T15:50:07;31.35;;;17.67;;
36233;SDS011;43467;50.890;5.982;2023-02-21T15:52:42;33.55;;;19.30;;
36233;SDS011;43467;50.890;5.982;2023-02-21T16:00:30;30.95;;;17.98;;
36233;SDS011;43467;50.890;5.982;2023-02-21T16:08:37;31.95;;;17.92;;
36233;SDS011;43467;50.890;5.982;2023-02-21T16:11:14;34.33;;;15.88;;
36233;SDS011;43467;50.890;5.982;2023-02-21T16:13:40;30.95;;;17.45;;
36233;SDS011;43467;50.890;5.982;2023-02-21T16:16:06;28.92;;;17.58;;
36233;SDS011;43467;50.890;5.982;2023-02-21T16:18:33;23.35;;;15.10;;
36233;SDS011;43467;50.890;5.982;2023-02-21T16:21:00;28.55;;;16.27;;
36233;SDS011;43467;50.890;5.982;2023-02-21T16:23:31;28.08;;;16.90;;
36233;SDS011;43467;50.890;5.982;2023-02-21T16:26:17;27.75;;;16.67;;
36233;SDS011;43467;50.890;5.982;2023-02-21T16:28:51;29.27;;;16.13;;
36233;SDS011;43467;50.890;5.982;2023-02-21T16:31:23;27.10;;;15.57;;
36233;SDS011;43467;50.890;5.982;2023-02-21T16:33:50;26.33;;;15.73;;
36233;SDS011;43467;50.890;5.982;2023-02-21T16:36:20;30.35;;;15.30;;
36233;SDS011;43467;50.890;5.982;2023-02-21T16:38:51;27.85;;;16.20;;
36233;SDS011;43467;50.890;5.982;2023-02-21T16:41:17;27.05;;;15.57;;
36233;SDS011;43467;50.890;5.982;2023-02-21T16:43:42;26.90;;;15.70;;
36233;SDS011;43467;50.890;5.982;2023-02-21T16:46:08;27.23;;;15.57;;
36233;SDS011;43467;50.890;5.982;2023-02-21T16:48:33;29.98;;;16.45;;
36233;SDS011;43467;50.890;5.982;2023-02-21T16:50:59;27.27;;;15.25;;
36233;SDS011;43467;50.890;5.982;2023-02-21T16:53:27;28.88;;;15.05;;
36233;SDS011;43467;50.890;5.982;2023-02-21T16:55:52;26.65;;;15.68;;
36233;SDS011;43467;50.890;5.982;2023-02-21T16:58:36;27.92;;;16.02;;
36233;SDS011;43467;50.890;5.982;2023-02-21T17:01:05;27.38;;;16.00;;
36233;SDS011;43467;50.890;5.982;2023-02-21T17:03:38;32.10;;;17.73;;
36233;SDS011;43467;50.890;5.982;2023-02-21T17:06:07;28.48;;;15.70;;
36233;SDS011;43467;50.890;5.982;2023-02-21T17:08:41;32.17;;;16.80;;
36233;SDS011;43467;50.890;5.982;2023-02-21T17:11:06;30.65;;;16.33;;
36233;SDS011;43467;50.890;5.982;2023-02-21T17:13:32;28.17;;;16.17;;
36233;SDS011;43467;50.890;5.982;2023-02-21T17:15:57;34.22;;;19.48;;
36233;SDS011;43467;50.890;5.982;2023-02-21T17:18:22;36.03;;;20.10;;
36233;SDS011;43467;50.890;5.982;2023-02-21T17:20:48;33.45;;;18.52;;
36233;SDS011;43467;50.890;5.982;2023-02-21T17:23:13;32.85;;;18.20;;
36233;SDS011;43467;50.890;5.982;2023-02-21T17:25:39;31.52;;;17.50;;
36233;SDS011;43467;50.890;5.982;2023-02-21T17:28:04;35.17;;;19.13;;
36233;SDS011;43467;50.890;5.982;2023-02-21T17:30:30;31.33;;;17.20;;
36233;SDS011;43467;50.890;5.982;2023-02-21T17:32:55;36.50;;;17.85;;